sensor_id;sensor_type;location;lat;lon;timestamp;P1;durP1;ratioP1;P2;durP2;ratioP2
3034;SDS011;1527;48.836;9.172;2022-10-13T00:01:38;19.38;;;12.55;;
3034;SDS011;1527;48.836;9.172;2022-10-13T00:04:08;15.48;;;12.55;;
3034;SDS011;1527;48.836;9.172;2022-10-13T00:06:37;20.05;;;11.50;;
3034;SDS011;1527;48.836;9.172;2022-10-13T00:09:06;17.70;;;12.30;;
3034;SDS011;1527;48.836;9.172;2022-10-13T00:11:35;16.27;;;13.05;;
3034;SDS011;1527;48.836;9.172;2022-10-13T00:14:04;19.70;;;13.15;;
3034;SDS011;1527;48.836;9.172;2022-10-13T00:16:34;16.60;;;11.38;;
3034;SDS011;1527;48.836;9.172;2022-10-13T00:19:04;16.20;;;11.80;;
3034;SDS011;1527;48.836;9.172;2022-10-13T00:21:39;20.33;;;12.50;;
3034;SDS011;1527;48.836;9.172;2022-10-13T00:24:08;29.50;;;13.18;;
3034;SDS011;1527;48.836;9.172;2022-10-13T00:26:38;18.85;;;12.27;;
3034;SDS011;1527;48.836;9.172;2022-10-13T00:29:18;15.70;;;12.43;;
3034;SDS011;1527;48.836;9.172;2022-10-13T00:31:47;16.27;;;12.52;;
3034;SDS011;1527;48.836;9.172;2022-10-13T00:34:16;18.02;;;11.85;;
3034;SDS011;1527;48.836;9.172;2022-10-13T00:36:46;16.77;;;13.50;;
3034;SDS011;1527;48.836;9.172;2022-10-13T00:39:15;17.05;;;12.15;;
3034;SDS011;1527;48.836;9.172;2022-10-13T00:41:45;18.17;;;11.23;;
3034;SDS011;1527;48.836;9.172;2022-10-13T00:47:32;18.75;;;12.05;;
3034;SDS011;1527;48.836;9.172;2022-10-13T00:50:06;19.73;;;11.70;;
3034;SDS011;1527;48.836;9.172;2022-10-13T00:52:40;12.60;;;10.30;;
3034;SDS011;1527;48.836;9.172;2022-10-13T00:55:10;14.80;;;11.90;;
3034;SDS011;1527;48.836;9.172;2022-10-13T00:57:41;16.80;;;11.95;;
3034;SDS011;1527;48.836;9.172;2022-10-13T01:00:14;16.90;;;11.88;;
3034;SDS011;1527;48.836;9.172;2022-10-13T01:02:43;15.80;;;11.10;;
3034;SDS011;1527;48.836;9.172;2022-10-13T01:05:12;14.15;;;10.60;;
3034;SDS011;1527;48.836;9.172;2022-10-13T01:07:44;15.18;;;11.77;;
3034;SDS011;1527;48.836;9.172;2022-10-13T01:10:15;17.17;;;11.02;;
3034;SDS011;1527;48.836;9.172;2022-10-13T01:13:04;17.60;;;11.75;;
3034;SDS011;1527;48.836;9.172;2022-10-13T01:15:41;17.38;;;13.18;;
3034;SDS011;1527;48.836;9.172;2022-10-13T01:18:18;19.48;;;11.43;;
3034;SDS011;1527;48.836;9.172;2022-10-13T01:20:58;22.33;;;13.40;;
3034;SDS011;1527;48.836;9.172;2022-10-13T01:23:58;15.85;;;12.75;;
3034;SDS011;1527;48.836;9.172;2022-10-13T01:27:18;14.75;;;10.88;;
3034;SDS011;1527;48.836;9.172;2022-10-13T01:30:16;15.02;;;11.85;;
3034;SDS011;1527;48.836;9.172;2022-10-13T01:32:50;20.38;;;12.88;;
3034;SDS011;1527;48.836;9.172;2022-10-13T01:35:52;15.70;;;11.13;;
3034;SDS011;1527;48.836;9.172;2022-10-13T01:38:40;13.80;;;10.55;;
3034;SDS011;1527;48.836;9.172;2022-10-13T01:41:17;19.58;;;12.70;;
3034;SDS011;1527;48.836;9.172;2022-10-13T01:43:54;18.30;;;11.80;;
3034;SDS011;1527;48.836;9.172;2022-10-13T01:46:30;17.77;;;12.10;;
3034;SDS011;1527;48.836;9.172;2022-10-13T01:49:04;19.25;;;13.15;;
3034;SDS011;1527;48.836;9.172;2022-10-13T01:51:37;16.52;;;11.90;;
3034;SDS011;1527;48.836;9.172;2022-10-13T01:54:07;16.75;;;13.45;;
3034;SDS011;1527;48.836;9.172;2022-10-13T01:56:37;19.40;;;12.65;;
3034;SDS011;1527;48.836;9.172;2022-10-13T01:59:15;23.48;;;14.23;;
3034;SDS011;1527;48.836;9.172;2022-10-13T02:01:50;20.92;;;13.00;;
3034;SDS011;1527;48.836;9.172;2022-10-13T02:04:34;19.27;;;12.93;;
3034;SDS011;1527;48.836;9.172;2022-10-13T02:07:17;17.02;;;13.02;;
3034;SDS011;1527;48.836;9.172;2022-10-13T02:09:53;15.60;;;12.50;;
3034;SDS011;1527;48.836;9.172;2022-10-13T02:12:33;19.33;;;13.80;;
3034;SDS011;1527;48.836;9.172;2022-10-13T02:15:08;18.40;;;13.02;;
3034;SDS011;1527;48.836;9.172;2022-10-13T02:17:45;18.08;;;14.25;;
3034;SDS011;1527;48.836;9.172;2022-10-13T02:20:14;24.52;;;14.20;;
3034;SDS011;1527;48.836;9.172;2022-10-13T02:22:47;21.20;;;12.75;;
3034;SDS011;1527;48.836;9.172;2022-10-13T02:25:23;19.77;;;13.43;;
3034;SDS011;1527;48.836;9.172;2022-10-13T02:27:53;25.02;;;13.40;;
3034;SDS011;1527;48.836;9.172;2022-10-13T02:30:29;17.00;;;12.63;;
3034;SDS011;1527;48.836;9.172;2022-10-13T02:33:01;22.92;;;13.32;;
3034;SDS011;1527;48.836;9.172;2022-10-13T02:35:31;15.70;;;13.18;;
3034;SDS011;1527;48.836;9.172;2022-10-13T02:38:01;18.83;;;13.10;;
3034;SDS011;1527;48.836;9.172;2022-10-13T02:40:30;20.38;;;14.07;;
3034;SDS011;1527;48.836;9.172;2022-10-13T02:42:59;18.77;;;12.57;;
3034;SDS011;1527;48.836;9.172;2022-10-13T02:45:28;20.23;;;13.25;;
3034;SDS011;1527;48.836;9.172;2022-10-13T02:47:57;22.05;;;14.20;;
3034;SDS011;1527;48.836;9.172;2022-10-13T02:50:28;19.25;;;13.65;;
3034;SDS011;1527;48.836;9.172;2022-10-13T02:52:58;18.55;;;13.38;;
3034;SDS011;1527;48.836;9.172;2022-10-13T02:55:27;24.83;;;14.98;;
3034;SDS011;1527;48.836;9.172;2022-10-13T02:57:56;22.15;;;15.32;;
3034;SDS011;1527;48.836;9.172;2022-10-13T03:00:25;23.00;;;13.18;;
3034;SDS011;1527;48.836;9.172;2022-10-13T03:02:54;21.58;;;13.93;;
3034;SDS011;1527;48.836;9.172;2022-10-13T03:05:23;18.67;;;14.48;;
3034;SDS011;1527;48.836;9.172;2022-10-13T03:07:54;17.38;;;13.10;;
3034;SDS011;1527;48.836;9.172;2022-10-13T03:10:23;25.92;;;14.40;;
3034;SDS011;1527;48.836;9.172;2022-10-13T03:12:54;22.42;;;13.73;;
3034;SDS011;1527;48.836;9.172;2022-10-13T03:15:23;19.48;;;13.35;;
3034;SDS011;1527;48.836;9.172;2022-10-13T03:17:54;20.58;;;14.20;;
3034;SDS011;1527;48.836;9.172;2022-10-13T03:20:24;20.95;;;14.23;;
3034;SDS011;1527;48.836;9.172;2022-10-13T03:22:54;27.52;;;13.82;;
3034;SDS011;1527;48.836;9.172;2022-10-13T03:25:23;20.63;;;14.77;;
3034;SDS011;1527;48.836;9.172;2022-10-13T03:27:53;19.92;;;12.93;;
3034;SDS011;1527;48.836;9.172;2022-10-13T03:30:23;25.40;;;16.48;;
3034;SDS011;1527;48.836;9.172;2022-10-13T03:32:52;18.88;;;15.55;;
3034;SDS011;1527;48.836;9.172;2022-10-13T03:35:21;28.27;;;15.57;;
3034;SDS011;1527;48.836;9.172;2022-10-13T03:37:50;26.20;;;16.75;;
3034;SDS011;1527;48.836;9.172;2022-10-13T03:40:22;25.58;;;15.50;;
3034;SDS011;1527;48.836;9.172;2022-10-13T03:42:51;24.40;;;16.00;;
3034;SDS011;1527;48.836;9.172;2022-10-13T03:45:20;31.52;;;16.67;;
3034;SDS011;1527;48.836;9.172;2022-10-13T03:47:49;30.88;;;18.00;;
3034;SDS011;1527;48.836;9.172;2022-10-13T03:50:19;28.30;;;17.60;;
3034;SDS011;1527;48.836;9.172;2022-10-13T03:52:48;25.83;;;17.35;;
3034;SDS011;1527;48.836;9.172;2022-10-13T03:55:18;28.75;;;17.63;;
3034;SDS011;1527;48.836;9.172;2022-10-13T03:57:48;23.73;;;16.80;;
3034;SDS011;1527;48.836;9.172;2022-10-13T04:00:17;28.70;;;18.33;;
3034;SDS011;1527;48.836;9.172;2022-10-13T04:02:47;26.08;;;17.55;;
3034;SDS011;1527;48.836;9.172;2022-10-13T04:05:16;28.60;;;17.98;;
3034;SDS011;1527;48.836;9.172;2022-10-13T04:07:45;26.00;;;16.92;;
3034;SDS011;1527;48.836;9.172;2022-10-13T04:10:17;29.60;;;21.35;;
3034;SDS011;1527;48.836;9.172;2022-10-13T04:12:50;28.45;;;21.30;;
3034;SDS011;1527;48.836;9.172;2022-10-13T04:15:19;32.47;;;21.80;;
3034;SDS011;1527;48.836;9.172;2022-10-13T04:17:48;30.65;;;20.63;;
3034;SDS011;1527;48.836;9.172;2022-10-13T04:20:17;27.27;;;18.77;;
3034;SDS011;1527;48.836;9.172;2022-10-13T04:22:46;30.98;;;17.33;;
3034;SDS011;1527;48.836;9.172;2022-10-13T04:25:15;30.15;;;19.02;;
3034;SDS011;1527;48.836;9.172;2022-10-13T04:27:44;34.20;;;19.70;;
3034;SDS011;1527;48.836;9.172;2022-10-13T04:30:16;25.95;;;17.98;;
3034;SDS011;1527;48.836;9.172;2022-10-13T04:32:45;24.23;;;15.40;;
3034;SDS011;1527;48.836;9.172;2022-10-13T04:35:14;26.27;;;16.67;;
3034;SDS011;1527;48.836;9.172;2022-10-13T04:37:45;29.27;;;16.92;;
3034;SDS011;1527;48.836;9.172;2022-10-13T04:40:14;23.65;;;16.95;;
3034;SDS011;1527;48.836;9.172;2022-10-13T04:42:43;27.50;;;19.58;;
3034;SDS011;1527;48.836;9.172;2022-10-13T04:45:12;25.02;;;17.48;;
3034;SDS011;1527;48.836;9.172;2022-10-13T04:47:43;28.85;;;17.33;;
3034;SDS011;1527;48.836;9.172;2022-10-13T04:50:12;20.80;;;16.02;;
3034;SDS011;1527;48.836;9.172;2022-10-13T04:52:41;23.73;;;16.40;;
3034;SDS011;1527;48.836;9.172;2022-10-13T04:55:10;26.83;;;17.27;;
3034;SDS011;1527;48.836;9.172;2022-10-13T04:57:39;23.05;;;16.55;;
3034;SDS011;1527;48.836;9.172;2022-10-13T05:00:09;21.35;;;16.90;;
3034;SDS011;1527;48.836;9.172;2022-10-13T05:02:39;24.02;;;16.70;;
3034;SDS011;1527;48.836;9.172;2022-10-13T05:05:10;27.63;;;16.85;;
3034;SDS011;1527;48.836;9.172;2022-10-13T05:07:39;22.25;;;16.13;;
3034;SDS011;1527;48.836;9.172;2022-10-13T05:10:08;27.02;;;15.43;;
3034;SDS011;1527;48.836;9.172;2022-10-13T05:12:37;28.85;;;17.30;;
3034;SDS011;1527;48.836;9.172;2022-10-13T05:15:07;26.38;;;16.50;;
3034;SDS011;1527;48.836;9.172;2022-10-13T05:17:37;27.42;;;16.17;;
3034;SDS011;1527;48.836;9.172;2022-10-13T05:20:08;25.55;;;17.67;;
3034;SDS011;1527;48.836;9.172;2022-10-13T05:22:39;34.63;;;19.23;;
3034;SDS011;1527;48.836;9.172;2022-10-13T05:25:08;35.92;;;18.83;;
3034;SDS011;1527;48.836;9.172;2022-10-13T05:27:37;34.05;;;20.70;;
3034;SDS011;1527;48.836;9.172;2022-10-13T05:30:09;29.98;;;18.92;;
3034;SDS011;1527;48.836;9.172;2022-10-13T05:32:39;28.35;;;18.27;;
3034;SDS011;1527;48.836;9.172;2022-10-13T05:35:10;30.00;;;19.50;;
3034;SDS011;1527;48.836;9.172;2022-10-13T05:37:39;31.77;;;19.98;;
3034;SDS011;1527;48.836;9.172;2022-10-13T05:40:09;26.13;;;16.75;;
3034;SDS011;1527;48.836;9.172;2022-10-13T05:42:39;24.52;;;15.55;;
3034;SDS011;1527;48.836;9.172;2022-10-13T05:45:09;22.45;;;16.45;;
3034;SDS011;1527;48.836;9.172;2022-10-13T05:47:39;21.13;;;15.93;;
3034;SDS011;1527;48.836;9.172;2022-10-13T05:50:12;21.05;;;15.60;;
3034;SDS011;1527;48.836;9.172;2022-10-13T05:52:42;29.98;;;16.58;;
3034;SDS011;1527;48.836;9.172;2022-10-13T05:55:12;26.42;;;18.10;;
3034;SDS011;1527;48.836;9.172;2022-10-13T05:57:46;29.98;;;19.42;;
3034;SDS011;1527;48.836;9.172;2022-10-13T06:00:19;25.02;;;17.73;;
3034;SDS011;1527;48.836;9.172;2022-10-13T06:02:48;26.52;;;17.23;;
3034;SDS011;1527;48.836;9.172;2022-10-13T06:05:23;23.85;;;15.65;;
3034;SDS011;1527;48.836;9.172;2022-10-13T06:07:55;20.25;;;14.85;;
3034;SDS011;1527;48.836;9.172;2022-10-13T06:10:24;30.85;;;17.67;;
3034;SDS011;1527;48.836;9.172;2022-10-13T06:12:54;25.75;;;16.58;;
3034;SDS011;1527;48.836;9.172;2022-10-13T06:15:23;31.80;;;17.27;;
3034;SDS011;1527;48.836;9.172;2022-10-13T06:17:55;40.03;;;20.20;;
3034;SDS011;1527;48.836;9.172;2022-10-13T06:20:26;30.25;;;19.00;;
3034;SDS011;1527;48.836;9.172;2022-10-13T06:22:55;34.45;;;19.20;;
3034;SDS011;1527;48.836;9.172;2022-10-13T06:25:24;35.75;;;18.80;;
3034;SDS011;1527;48.836;9.172;2022-10-13T06:27:55;27.23;;;18.15;;
3034;SDS011;1527;48.836;9.172;2022-10-13T06:30:26;24.55;;;16.67;;
3034;SDS011;1527;48.836;9.172;2022-10-13T06:32:55;23.58;;;18.40;;
3034;SDS011;1527;48.836;9.172;2022-10-13T06:35:26;26.90;;;17.08;;
3034;SDS011;1527;48.836;9.172;2022-10-13T06:37:55;27.70;;;18.25;;
3034;SDS011;1527;48.836;9.172;2022-10-13T06:40:25;30.88;;;16.33;;
3034;SDS011;1527;48.836;9.172;2022-10-13T06:42:54;24.65;;;16.45;;
3034;SDS011;1527;48.836;9.172;2022-10-13T06:45:23;31.58;;;15.70;;
3034;SDS011;1527;48.836;9.172;2022-10-13T06:47:52;26.95;;;17.20;;
3034;SDS011;1527;48.836;9.172;2022-10-13T06:50:22;29.58;;;18.95;;
3034;SDS011;1527;48.836;9.172;2022-10-13T06:52:55;29.52;;;18.17;;
3034;SDS011;1527;48.836;9.172;2022-10-13T06:55:24;26.95;;;17.10;;
3034;SDS011;1527;48.836;9.172;2022-10-13T06:57:53;30.75;;;18.20;;
3034;SDS011;1527;48.836;9.172;2022-10-13T07:00:23;26.05;;;17.38;;
3034;SDS011;1527;48.836;9.172;2022-10-13T07:02:52;30.85;;;17.10;;
3034;SDS011;1527;48.836;9.172;2022-10-13T07:05:21;36.13;;;18.02;;
3034;SDS011;1527;48.836;9.172;2022-10-13T07:07:50;24.70;;;17.45;;
3034;SDS011;1527;48.836;9.172;2022-10-13T07:10:21;31.77;;;17.63;;
3034;SDS011;1527;48.836;9.172;2022-10-13T07:12:50;25.52;;;16.88;;
3034;SDS011;1527;48.836;9.172;2022-10-13T07:15:22;31.48;;;15.15;;
3034;SDS011;1527;48.836;9.172;2022-10-13T07:17:51;27.30;;;16.48;;
3034;SDS011;1527;48.836;9.172;2022-10-13T07:20:21;23.67;;;17.17;;
3034;SDS011;1527;48.836;9.172;2022-10-13T07:22:52;32.25;;;17.80;;
3034;SDS011;1527;48.836;9.172;2022-10-13T07:25:25;23.85;;;17.38;;
3034;SDS011;1527;48.836;9.172;2022-10-13T07:27:55;23.85;;;16.35;;
3034;SDS011;1527;48.836;9.172;2022-10-13T07:30:26;25.25;;;16.23;;
3034;SDS011;1527;48.836;9.172;2022-10-13T07:32:55;25.00;;;17.30;;
3034;SDS011;1527;48.836;9.172;2022-10-13T07:35:24;27.23;;;16.55;;
3034;SDS011;1527;48.836;9.172;2022-10-13T07:37:57;26.17;;;15.88;;
3034;SDS011;1527;48.836;9.172;2022-10-13T07:40:27;24.13;;;15.88;;
3034;SDS011;1527;48.836;9.172;2022-10-13T07:42:56;27.75;;;15.43;;
3034;SDS011;1527;48.836;9.172;2022-10-13T07:45:25;21.27;;;14.85;;
3034;SDS011;1527;48.836;9.172;2022-10-13T07:47:55;20.65;;;14.95;;
3034;SDS011;1527;48.836;9.172;2022-10-13T07:50:24;24.25;;;15.40;;
3034;SDS011;1527;48.836;9.172;2022-10-13T07:52:53;22.85;;;14.82;;
3034;SDS011;1527;48.836;9.172;2022-10-13T07:55:22;25.88;;;15.65;;
3034;SDS011;1527;48.836;9.172;2022-10-13T07:57:54;26.98;;;14.90;;
3034;SDS011;1527;48.836;9.172;2022-10-13T08:00:23;24.55;;;14.60;;
3034;SDS011;1527;48.836;9.172;2022-10-13T08:02:52;29.70;;;15.98;;
3034;SDS011;1527;48.836;9.172;2022-10-13T08:05:22;23.02;;;15.30;;
3034;SDS011;1527;48.836;9.172;2022-10-13T08:07:51;25.23;;;14.15;;
3034;SDS011;1527;48.836;9.172;2022-10-13T08:10:24;24.58;;;15.07;;
3034;SDS011;1527;48.836;9.172;2022-10-13T08:12:59;22.48;;;14.02;;
3034;SDS011;1527;48.836;9.172;2022-10-13T08:15:28;19.30;;;13.50;;
3034;SDS011;1527;48.836;9.172;2022-10-13T08:17:58;19.10;;;13.55;;
3034;SDS011;1527;48.836;9.172;2022-10-13T08:20:26;19.17;;;14.07;;
3034;SDS011;1527;48.836;9.172;2022-10-13T08:23:10;22.23;;;13.35;;
3034;SDS011;1527;48.836;9.172;2022-10-13T08:25:47;21.08;;;14.73;;
3034;SDS011;1527;48.836;9.172;2022-10-13T08:28:19;19.15;;;14.23;;
3034;SDS011;1527;48.836;9.172;2022-10-13T08:30:50;20.17;;;12.38;;
3034;SDS011;1527;48.836;9.172;2022-10-13T08:33:24;24.80;;;13.05;;
3034;SDS011;1527;48.836;9.172;2022-10-13T08:35:54;18.63;;;12.45;;
3034;SDS011;1527;48.836;9.172;2022-10-13T08:38:25;21.33;;;13.07;;
3034;SDS011;1527;48.836;9.172;2022-10-13T08:40:54;18.25;;;10.93;;
3034;SDS011;1527;48.836;9.172;2022-10-13T08:43:27;20.88;;;11.38;;
3034;SDS011;1527;48.836;9.172;2022-10-13T08:45:58;20.25;;;11.18;;
3034;SDS011;1527;48.836;9.172;2022-10-13T08:48:29;14.63;;;11.23;;
3034;SDS011;1527;48.836;9.172;2022-10-13T08:51:04;14.50;;;11.00;;
3034;SDS011;1527;48.836;9.172;2022-10-13T08:53:36;22.85;;;12.45;;
3034;SDS011;1527;48.836;9.172;2022-10-13T08:56:08;20.55;;;11.88;;
3034;SDS011;1527;48.836;9.172;2022-10-13T08:58:47;21.45;;;11.52;;
3034;SDS011;1527;48.836;9.172;2022-10-13T09:01:20;14.70;;;9.73;;
3034;SDS011;1527;48.836;9.172;2022-10-13T09:03:53;28.27;;;12.05;;
3034;SDS011;1527;48.836;9.172;2022-10-13T09:06:25;20.15;;;10.70;;
3034;SDS011;1527;48.836;9.172;2022-10-13T09:08:58;20.02;;;10.25;;
3034;SDS011;1527;48.836;9.172;2022-10-13T09:11:33;20.30;;;10.80;;
3034;SDS011;1527;48.836;9.172;2022-10-13T09:14:07;16.85;;;10.90;;
3034;SDS011;1527;48.836;9.172;2022-10-13T09:16:41;13.52;;;9.52;;
3034;SDS011;1527;48.836;9.172;2022-10-13T09:19:13;26.50;;;10.70;;
3034;SDS011;1527;48.836;9.172;2022-10-13T09:21:54;15.57;;;9.77;;
3034;SDS011;1527;48.836;9.172;2022-10-13T09:24:25;19.42;;;9.65;;
3034;SDS011;1527;48.836;9.172;2022-10-13T09:27:03;14.90;;;10.20;;
3034;SDS011;1527;48.836;9.172;2022-10-13T09:29:40;18.30;;;10.18;;
3034;SDS011;1527;48.836;9.172;2022-10-13T09:32:14;14.63;;;9.45;;
3034;SDS011;1527;48.836;9.172;2022-10-13T09:34:46;14.35;;;9.98;;
3034;SDS011;1527;48.836;9.172;2022-10-13T09:37:17;13.00;;;8.25;;
3034;SDS011;1527;48.836;9.172;2022-10-13T09:39:58;15.25;;;9.27;;
3034;SDS011;1527;48.836;9.172;2022-10-13T09:42:30;10.80;;;8.93;;
3034;SDS011;1527;48.836;9.172;2022-10-13T09:45:11;17.00;;;8.98;;
3034;SDS011;1527;48.836;9.172;2022-10-13T09:47:47;16.92;;;9.27;;
3034;SDS011;1527;48.836;9.172;2022-10-13T09:50:19;16.35;;;9.27;;
3034;SDS011;1527;48.836;9.172;2022-10-13T09:52:54;16.08;;;10.10;;
3034;SDS011;1527;48.836;9.172;2022-10-13T09:55:46;16.05;;;8.32;;
3034;SDS011;1527;48.836;9.172;2022-10-13T09:58:20;12.40;;;8.20;;
3034;SDS011;1527;48.836;9.172;2022-10-13T10:00:56;13.52;;;8.50;;
3034;SDS011;1527;48.836;9.172;2022-10-13T10:03:26;13.32;;;8.50;;
3034;SDS011;1527;48.836;9.172;2022-10-13T10:06:00;16.65;;;9.07;;
3034;SDS011;1527;48.836;9.172;2022-10-13T10:08:32;11.75;;;7.90;;
3034;SDS011;1527;48.836;9.172;2022-10-13T10:11:32;11.55;;;8.18;;
3034;SDS011;1527;48.836;9.172;2022-10-13T10:14:09;12.52;;;8.25;;
3034;SDS011;1527;48.836;9.172;2022-10-13T10:16:54;12.85;;;7.85;;
3034;SDS011;1527;48.836;9.172;2022-10-13T10:19:38;12.52;;;8.93;;
3034;SDS011;1527;48.836;9.172;2022-10-13T10:22:24;14.32;;;7.57;;
3034;SDS011;1527;48.836;9.172;2022-10-13T10:25:08;11.27;;;7.50;;
3034;SDS011;1527;48.836;9.172;2022-10-13T10:27:56;12.93;;;7.82;;
3034;SDS011;1527;48.836;9.172;2022-10-13T10:31:00;19.08;;;9.13;;
3034;SDS011;1527;48.836;9.172;2022-10-13T10:33:43;9.88;;;7.50;;
3034;SDS011;1527;48.836;9.172;2022-10-13T10:36:30;10.60;;;8.13;;
3034;SDS011;1527;48.836;9.172;2022-10-13T10:39:08;11.75;;;8.70;;
3034;SDS011;1527;48.836;9.172;2022-10-13T10:41:49;13.20;;;8.38;;
3034;SDS011;1527;48.836;9.172;2022-10-13T10:44:26;17.05;;;7.78;;
3034;SDS011;1527;48.836;9.172;2022-10-13T10:47:00;12.40;;;7.85;;
3034;SDS011;1527;48.836;9.172;2022-10-13T10:49:35;12.82;;;7.32;;
3034;SDS011;1527;48.836;9.172;2022-10-13T10:52:06;12.07;;;7.63;;
3034;SDS011;1527;48.836;9.172;2022-10-13T10:54:50;11.40;;;6.88;;
3034;SDS011;1527;48.836;9.172;2022-10-13T10:57:26;10.93;;;8.15;;
3034;SDS011;1527;48.836;9.172;2022-10-13T11:00:03;15.68;;;10.57;;
3034;SDS011;1527;48.836;9.172;2022-10-13T11:02:42;11.50;;;7.78;;
3034;SDS011;1527;48.836;9.172;2022-10-13T11:05:22;12.23;;;7.25;;
3034;SDS011;1527;48.836;9.172;2022-10-13T11:07:55;17.83;;;7.85;;
3034;SDS011;1527;48.836;9.172;2022-10-13T11:10:26;12.70;;;7.70;;
3034;SDS011;1527;48.836;9.172;2022-10-13T11:15:53;10.90;;;7.20;;
3034;SDS011;1527;48.836;9.172;2022-10-13T11:24:44;12.55;;;6.85;;
3034;SDS011;1527;48.836;9.172;2022-10-13T11:27:46;8.18;;;6.13;;
3034;SDS011;1527;48.836;9.172;2022-10-13T11:33:32;12.90;;;6.70;;
3034;SDS011;1527;48.836;9.172;2022-10-13T11:42:38;16.33;;;7.25;;
3034;SDS011;1527;48.836;9.172;2022-10-13T11:45:51;8.63;;;6.90;;
3034;SDS011;1527;48.836;9.172;2022-10-13T11:48:49;9.80;;;6.53;;
3034;SDS011;1527;48.836;9.172;2022-10-13T11:51:50;9.45;;;7.70;;
3034;SDS011;1527;48.836;9.172;2022-10-13T11:54:42;15.18;;;8.10;;
3034;SDS011;1527;48.836;9.172;2022-10-13T11:57:19;14.38;;;8.30;;
3034;SDS011;1527;48.836;9.172;2022-10-13T11:59:52;10.80;;;6.55;;
3034;SDS011;1527;48.836;9.172;2022-10-13T12:02:29;14.63;;;8.32;;
3034;SDS011;1527;48.836;9.172;2022-10-13T12:04:59;14.13;;;7.57;;
3034;SDS011;1527;48.836;9.172;2022-10-13T12:07:36;9.85;;;7.65;;
3034;SDS011;1527;48.836;9.172;2022-10-13T12:10:13;8.15;;;6.68;;
3034;SDS011;1527;48.836;9.172;2022-10-13T12:12:49;11.18;;;6.85;;
3034;SDS011;1527;48.836;9.172;2022-10-13T12:15:29;14.60;;;6.65;;
3034;SDS011;1527;48.836;9.172;2022-10-13T12:18:01;11.60;;;6.45;;
3034;SDS011;1527;48.836;9.172;2022-10-13T12:20:51;11.48;;;6.68;;
3034;SDS011;1527;48.836;9.172;2022-10-13T12:23:22;16.17;;;7.03;;
3034;SDS011;1527;48.836;9.172;2022-10-13T12:25:52;15.95;;;6.97;;
3034;SDS011;1527;48.836;9.172;2022-10-13T12:28:26;8.48;;;6.28;;
3034;SDS011;1527;48.836;9.172;2022-10-13T12:30:58;8.98;;;6.90;;
3034;SDS011;1527;48.836;9.172;2022-10-13T12:33:29;7.70;;;6.13;;
3034;SDS011;1527;48.836;9.172;2022-10-13T12:36:11;10.38;;;7.22;;
3034;SDS011;1527;48.836;9.172;2022-10-13T12:38:45;10.70;;;6.68;;
3034;SDS011;1527;48.836;9.172;2022-10-13T12:41:18;9.50;;;7.68;;
3034;SDS011;1527;48.836;9.172;2022-10-13T12:43:54;8.50;;;6.53;;
3034;SDS011;1527;48.836;9.172;2022-10-13T12:46:37;11.65;;;7.05;;
3034;SDS011;1527;48.836;9.172;2022-10-13T12:49:12;11.48;;;6.60;;
3034;SDS011;1527;48.836;9.172;2022-10-13T12:51:43;8.48;;;6.32;;
3034;SDS011;1527;48.836;9.172;2022-10-13T12:54:17;11.05;;;6.72;;
3034;SDS011;1527;48.836;9.172;2022-10-13T12:56:51;11.52;;;6.60;;
3034;SDS011;1527;48.836;9.172;2022-10-13T12:59:26;9.30;;;6.57;;
3034;SDS011;1527;48.836;9.172;2022-10-13T13:01:58;10.13;;;6.55;;
3034;SDS011;1527;48.836;9.172;2022-10-13T13:04:30;9.85;;;7.20;;
3034;SDS011;1527;48.836;9.172;2022-10-13T13:07:24;12.07;;;6.53;;
3034;SDS011;1527;48.836;9.172;2022-10-13T13:10:00;10.77;;;5.70;;
3034;SDS011;1527;48.836;9.172;2022-10-13T13:12:41;8.30;;;6.00;;
3034;SDS011;1527;48.836;9.172;2022-10-13T13:15:29;11.10;;;6.20;;
3034;SDS011;1527;48.836;9.172;2022-10-13T13:21:03;9.10;;;6.78;;
3034;SDS011;1527;48.836;9.172;2022-10-13T13:23:33;8.27;;;5.38;;
3034;SDS011;1527;48.836;9.172;2022-10-13T13:26:05;10.57;;;5.60;;
3034;SDS011;1527;48.836;9.172;2022-10-13T13:28:42;13.25;;;6.10;;
3034;SDS011;1527;48.836;9.172;2022-10-13T13:31:15;10.02;;;6.13;;
3034;SDS011;1527;48.836;9.172;2022-10-13T13:33:47;9.40;;;5.20;;
3034;SDS011;1527;48.836;9.172;2022-10-13T13:36:17;11.70;;;5.43;;
3034;SDS011;1527;48.836;9.172;2022-10-13T13:38:51;10.60;;;5.63;;
3034;SDS011;1527;48.836;9.172;2022-10-13T13:41:21;7.72;;;5.50;;
3034;SDS011;1527;48.836;9.172;2022-10-13T13:43:54;15.40;;;6.20;;
3034;SDS011;1527;48.836;9.172;2022-10-13T13:46:24;6.68;;;5.40;;
3034;SDS011;1527;48.836;9.172;2022-10-13T13:48:55;7.43;;;5.13;;
3034;SDS011;1527;48.836;9.172;2022-10-13T13:51:24;9.77;;;5.85;;
3034;SDS011;1527;48.836;9.172;2022-10-13T13:53:53;10.50;;;5.60;;
3034;SDS011;1527;48.836;9.172;2022-10-13T13:56:22;7.93;;;5.13;;
3034;SDS011;1527;48.836;9.172;2022-10-13T13:58:52;7.65;;;5.18;;
3034;SDS011;1527;48.836;9.172;2022-10-13T14:01:22;9.52;;;5.55;;
3034;SDS011;1527;48.836;9.172;2022-10-13T14:03:53;8.35;;;5.20;;
3034;SDS011;1527;48.836;9.172;2022-10-13T14:06:22;8.93;;;6.85;;
3034;SDS011;1527;48.836;9.172;2022-10-13T14:08:51;10.63;;;7.60;;
3034;SDS011;1527;48.836;9.172;2022-10-13T14:11:20;10.07;;;6.28;;
3034;SDS011;1527;48.836;9.172;2022-10-13T14:13:51;8.98;;;5.95;;
3034;SDS011;1527;48.836;9.172;2022-10-13T14:16:26;14.73;;;7.20;;
3034;SDS011;1527;48.836;9.172;2022-10-13T14:19:00;13.57;;;7.07;;
3034;SDS011;1527;48.836;9.172;2022-10-13T14:21:29;7.80;;;6.10;;
3034;SDS011;1527;48.836;9.172;2022-10-13T14:23:58;10.20;;;5.88;;
3034;SDS011;1527;48.836;9.172;2022-10-13T14:26:27;8.77;;;6.63;;
3034;SDS011;1527;48.836;9.172;2022-10-13T14:28:57;12.05;;;6.75;;
3034;SDS011;1527;48.836;9.172;2022-10-13T14:31:26;9.73;;;6.70;;
3034;SDS011;1527;48.836;9.172;2022-10-13T14:33:55;11.75;;;8.23;;
3034;SDS011;1527;48.836;9.172;2022-10-13T14:36:28;14.13;;;7.40;;
3034;SDS011;1527;48.836;9.172;2022-10-13T14:38:57;13.25;;;8.93;;
3034;SDS011;1527;48.836;9.172;2022-10-13T14:41:26;13.10;;;7.35;;
3034;SDS011;1527;48.836;9.172;2022-10-13T14:43:55;21.20;;;6.70;;
3034;SDS011;1527;48.836;9.172;2022-10-13T14:46:24;13.80;;;6.45;;
3034;SDS011;1527;48.836;9.172;2022-10-13T14:48:54;8.70;;;7.55;;
3034;SDS011;1527;48.836;9.172;2022-10-13T14:51:24;9.98;;;7.25;;
3034;SDS011;1527;48.836;9.172;2022-10-13T14:53:55;10.57;;;7.05;;
3034;SDS011;1527;48.836;9.172;2022-10-13T14:56:24;14.55;;;7.25;;
3034;SDS011;1527;48.836;9.172;2022-10-13T14:58:57;9.90;;;7.57;;
3034;SDS011;1527;48.836;9.172;2022-10-13T15:01:36;10.30;;;7.47;;
3034;SDS011;1527;48.836;9.172;2022-10-13T15:04:07;17.40;;;8.30;;
3034;SDS011;1527;48.836;9.172;2022-10-13T15:06:37;11.60;;;8.55;;
3034;SDS011;1527;48.836;9.172;2022-10-13T15:09:08;15.45;;;9.80;;
3034;SDS011;1527;48.836;9.172;2022-10-13T15:11:38;12.90;;;9.40;;
3034;SDS011;1527;48.836;9.172;2022-10-13T15:14:07;14.00;;;9.80;;
3034;SDS011;1527;48.836;9.172;2022-10-13T15:16:36;17.67;;;10.70;;
3034;SDS011;1527;48.836;9.172;2022-10-13T15:19:05;12.75;;;10.32;;
3034;SDS011;1527;48.836;9.172;2022-10-13T15:21:34;15.00;;;9.90;;
3034;SDS011;1527;48.836;9.172;2022-10-13T15:24:04;13.98;;;8.98;;
3034;SDS011;1527;48.836;9.172;2022-10-13T15:26:35;10.10;;;9.02;;
3034;SDS011;1527;48.836;9.172;2022-10-13T15:29:04;25.50;;;10.10;;
3034;SDS011;1527;48.836;9.172;2022-10-13T15:31:33;18.35;;;11.07;;
3034;SDS011;1527;48.836;9.172;2022-10-13T15:34:02;17.77;;;11.13;;
3034;SDS011;1527;48.836;9.172;2022-10-13T15:36:31;18.08;;;9.65;;
3034;SDS011;1527;48.836;9.172;2022-10-13T15:39:00;15.60;;;10.07;;
3034;SDS011;1527;48.836;9.172;2022-10-13T15:41:29;12.15;;;10.05;;
3034;SDS011;1527;48.836;9.172;2022-10-13T15:44:00;13.55;;;10.18;;
3034;SDS011;1527;48.836;9.172;2022-10-13T15:46:29;12.73;;;10.18;;
3034;SDS011;1527;48.836;9.172;2022-10-13T15:48:58;14.65;;;9.70;;
3034;SDS011;1527;48.836;9.172;2022-10-13T15:51:27;12.60;;;9.68;;
3034;SDS011;1527;48.836;9.172;2022-10-13T15:53:56;15.98;;;10.25;;